Terminal Aerodrome Forecast
Issued by NWS

Home | Current Version | Previous Version | Text Only | Print | Product List | Glossary On
Versions: 1 2 3 4 5 6 7 8 9 10 11 12 13 14 15 16 17
000
FTUS43 KDLH 270538
TAFBRD
TAF
KBRD 270538Z 2706/2806 17003KT P6SM SCT080 BKN150
     FM271000 13004KT P6SM BKN100
     FM271900 16008KT P6SM VCTS SCT035CB BKN080
      TEMPO 2719/2723 6SM -TSRA BKN035CB=

USA.gov is the U.S. government's official web portal to all federal, state and local government web resources and services.